Mutual, Oklahoma
Current Conditions -  °F | °C
As of 7:55 PM on Sunday 21 Dec 2014 (Local Time) from KWWR Reporting Station
Broken Clouds Broken Clouds  
Wind Chill: 40°   Ceiling: 1000
Heat Index: 46°   Visibility: 10mi
Dew Point: 43°   Wind: 14mph
Humidity: 87%   Direction: 150°SSE
Pressure: 29.63"   Gusts: 22mph
Location:  36.23°N, 99.17°W
Report Text: KWWR 220155Z AUTO 15012G19KT 10SM BKN010 08/06 A2963 RMK AO2
Loading
Personal Weather Stations






























Interactive Weather Map New forecast layout! Learn more

10-Day Weather Forecast

Advertisements
Track Severe Weather on mobile